createdAt,value
2016-10-01T00:01:24.037Z,16.52
2016-10-01T00:06:23.657Z,16.44
2016-10-01T00:11:23.883Z,16.37
2016-10-01T00:16:23.826Z,16.44
2016-10-01T00:21:23.742Z,16.39
2016-10-01T00:26:23.366Z,16.48
2016-10-01T00:31:23.598Z,16.34
2016-10-01T00:36:23.218Z,16.32
2016-10-01T00:41:22.847Z,16.4
2016-10-01T00:46:23.369Z,16.36
2016-10-01T00:51:23.308Z,16.29
2016-10-01T00:56:22.919Z,16.18
2016-10-01T01:01:23.157Z,16.17
2016-10-01T01:06:23.090Z,16.11
2016-10-01T01:11:23.005Z,16.21
2016-10-01T01:16:22.936Z,16.11
2016-10-01T01:21:22.567Z,16.1
2016-10-01T01:26:22.792Z,16.04
2016-10-01T01:31:22.405Z,16
2016-10-01T01:36:22.335Z,16
2016-10-01T01:41:22.263Z,16.02
2016-10-01T01:46:22.485Z,15.92
2016-10-01T01:51:22.414Z,16.04
2016-10-01T01:56:22.035Z,15.96
2016-10-01T02:01:22.269Z,16.04
2016-10-01T02:06:21.889Z,16.11
2016-10-01T02:11:21.820Z,16.02
2016-10-01T02:16:22.049Z,16.02
2016-10-01T02:21:21.984Z,16
2016-10-01T02:26:21.905Z,16.06
2016-10-01T02:31:21.524Z,16.02
2016-10-01T02:36:21.147Z,16.02
2016-10-01T02:41:21.683Z,16.04
2016-10-01T02:46:21.612Z,16.06
2016-10-01T02:51:21.235Z,15.96
2016-10-01T02:56:21.461Z,16
2016-10-01T03:01:21.397Z,15.95
2016-10-01T03:06:21.314Z,16.06
2016-10-01T03:11:20.941Z,16.07
2016-10-01T03:16:21.166Z,15.98
2016-10-01T03:21:21.089Z,16.13
2016-10-01T03:26:21.021Z,16.13
2016-10-01T03:31:20.646Z,16.21
2016-10-01T03:36:20.572Z,16.29
2016-10-01T03:41:20.809Z,16.22
2016-10-01T03:46:20.730Z,16.13
2016-10-01T03:51:20.656Z,16.18
2016-10-01T03:56:20.592Z,16.25
2016-10-01T04:01:19.901Z,16.26
2016-10-01T04:06:20.141Z,16.3
2016-10-01T04:11:20.367Z,16.3
2016-10-01T04:16:20.302Z,16.18
2016-10-01T04:21:20.225Z,16.13
2016-10-01T04:26:20.153Z,16.16
2016-10-01T04:31:19.779Z,16.21
2016-10-01T04:36:19.704Z,16.14
2016-10-01T04:41:19.644Z,16.17
2016-10-01T04:46:19.866Z,16.08
2016-10-01T04:51:19.485Z,16.07
2016-10-01T04:56:19.422Z,16
2016-10-01T05:01:19.647Z,15.99
2016-10-01T05:06:19.581Z,16.11
2016-10-01T05:11:19.507Z,16.08
2016-10-01T05:16:19.432Z,16.13
2016-10-01T05:21:19.361Z,16.08
2016-10-01T05:26:19.290Z,16.21
2016-10-01T05:31:19.216Z,16.16
2016-10-01T05:36:19.146Z,16.25
2016-10-01T05:41:18.773Z,16.22
2016-10-01T05:46:18.999Z,16.27
2016-10-01T05:51:18.325Z,16.39
2016-10-01T05:56:18.857Z,16.3
2016-10-01T06:01:18.783Z,16.33
2016-10-01T06:06:18.716Z,16.4
2016-10-01T06:11:18.645Z,16.33
2016-10-01T06:16:18.279Z,16.47
2016-10-01T06:21:18.501Z,16.47
2016-10-01T06:26:18.137Z,16.39
2016-10-01T06:31:18.367Z,16.49
2016-10-01T06:36:17.990Z,16.58
2016-10-01T06:41:18.221Z,16.74
2016-10-01T06:46:18.152Z,16.87
2016-10-01T06:51:17.783Z,17.18
2016-10-01T06:56:18.021Z,17.27
2016-10-01T07:01:17.946Z,17.22
2016-10-01T07:06:17.578Z,17.38
2016-10-01T07:11:17.512Z,17.55
2016-10-01T07:16:17.134Z,17.66
2016-10-01T07:21:17.681Z,17.86
2016-10-01T07:26:17.001Z,17.96
2016-10-01T07:31:17.558Z,17.87
2016-10-01T07:36:17.491Z,17.8
2016-10-01T07:41:17.427Z,17.83
2016-10-01T07:46:17.367Z,17.77
2016-10-01T07:51:16.687Z,17.87
2016-10-01T07:56:17.249Z,18.21
2016-10-01T08:01:16.559Z,18.59
2016-10-01T08:06:16.803Z,18.97
2016-10-01T08:11:17.050Z,19.31
2016-10-01T08:16:16.693Z,19.32
2016-10-01T08:21:16.945Z,19.3
2016-10-01T08:26:16.583Z,19.83
2016-10-01T08:31:16.836Z,20.1
2016-10-01T08:36:16.164Z,20.23
2016-10-01T08:41:16.415Z,20.34
2016-10-01T08:46:16.668Z,20.58
2016-10-01T08:51:16.620Z,21.61
2016-10-01T08:56:16.572Z,22.6
2016-10-01T09:01:16.511Z,22.84
2016-10-01T09:06:16.467Z,23.01
2016-10-01T09:11:16.109Z,23.04
2016-10-01T09:16:16.063Z,23.44
2016-10-01T09:21:16.326Z,23.22
2016-10-01T09:26:16.275Z,22.76
2016-10-01T09:31:16.233Z,23.1
2016-10-01T09:36:16.189Z,23.53
2016-10-01T09:41:16.136Z,23.53
2016-10-01T09:46:15.789Z,23.48
2016-10-01T09:51:16.059Z,22.82
2016-10-01T09:56:15.721Z,22.84
2016-10-01T10:01:15.973Z,23.03
2016-10-01T10:06:15.634Z,23.12
2016-10-01T10:11:15.572Z,23.56
2016-10-01T10:16:15.226Z,23.63
2016-10-01T10:21:15.803Z,23.4
2016-10-01T10:26:15.765Z,23.64
2016-10-01T10:31:15.691Z,23.75
2016-10-01T10:36:15.651Z,23.48
2016-10-01T10:41:15.602Z,23.07
2016-10-01T10:46:15.565Z,22.86
2016-10-01T10:51:15.523Z,23.26
2016-10-01T10:56:15.487Z,23.55
2016-10-01T11:01:15.138Z,23.34
2016-10-01T11:06:15.401Z,23.19
2016-10-01T11:11:15.056Z,23.04
2016-10-01T11:16:15.016Z,22.99
2016-10-01T11:21:15.284Z,23.32
2016-10-01T11:26:14.937Z,23.1
2016-10-01T11:31:14.903Z,23.22
2016-10-01T11:36:15.171Z,23.09
2016-10-01T11:41:14.826Z,23.1
2016-10-01T11:46:15.101Z,23.15
2016-10-01T11:51:15.065Z,23.21
2016-10-01T11:56:15.032Z,23.38
2016-10-01T12:01:14.689Z,23.29
2016-10-01T12:06:14.958Z,23.44
2016-10-01T12:11:14.623Z,23.45
2016-10-01T12:16:14.572Z,23.21
2016-10-01T12:21:14.540Z,23
2016-10-01T12:26:14.494Z,23.04
2016-10-01T12:31:14.757Z,23.24
2016-10-01T12:36:14.720Z,23.06
2016-10-01T12:41:14.375Z,22.63
2016-10-01T12:46:14.036Z,22.44
2016-10-01T12:51:14.607Z,22.59
2016-10-01T12:56:14.277Z,22.63
2016-10-01T13:01:13.913Z,22.71
2016-10-01T13:06:14.485Z,22.71
2016-10-01T13:11:14.137Z,22.76
2016-10-01T13:16:14.097Z,22.76
2016-10-01T13:21:14.367Z,22.79
2016-10-01T13:26:14.329Z,22.57
2016-10-01T13:31:13.979Z,22.36
2016-10-01T13:36:14.269Z,22.34
2016-10-01T13:41:13.904Z,22.31
2016-10-01T13:46:14.176Z,22.3
2016-10-01T13:51:14.137Z,22.26
2016-10-01T13:56:14.103Z,22.09
2016-10-01T14:01:13.760Z,22.07
2016-10-01T14:06:13.733Z,21.96
2016-10-01T14:11:13.687Z,21.85
2016-10-01T14:16:13.945Z,21.89
2016-10-01T14:21:13.898Z,21.86
2016-10-01T14:26:13.860Z,21.94
2016-10-01T14:31:13.819Z,22.07
2016-10-01T14:36:13.172Z,22.04
2016-10-01T14:41:13.751Z,22.12
2016-10-01T14:46:13.709Z,22.11
2016-10-01T14:51:13.374Z,21.9
2016-10-01T14:56:13.340Z,21.67
2016-10-01T15:01:13.600Z,21.64
2016-10-01T15:06:13.564Z,21.52
2016-10-01T15:11:13.531Z,21.38
2016-10-01T15:16:13.482Z,21.37
2016-10-01T15:21:13.442Z,21.25
2016-10-01T15:26:13.414Z,20.91
2016-10-01T15:31:13.059Z,20.74
2016-10-01T15:36:13.331Z,20.54
2016-10-01T15:41:12.985Z,20.46
2016-10-01T15:46:13.249Z,20.23
2016-10-01T15:51:12.912Z,19.95
2016-10-01T15:56:12.869Z,19.78
2016-10-01T16:01:13.141Z,19.7
2016-10-01T16:06:12.510Z,19.49
2016-10-01T16:11:13.067Z,19.55
2016-10-01T16:16:13.037Z,19.53
2016-10-01T16:21:12.988Z,19.43
2016-10-01T16:26:12.635Z,19.31
2016-10-01T16:31:12.295Z,19.32
2016-10-01T16:36:12.575Z,19.31
2016-10-01T16:41:12.533Z,19.28
2016-10-01T16:46:12.475Z,19.19
2016-10-01T16:51:12.437Z,19.05
2016-10-01T16:56:12.698Z,18.94
2016-10-01T17:01:12.648Z,18.96
2016-10-01T17:06:12.590Z,18.82
2016-10-01T17:11:12.244Z,18.78
2016-10-01T17:16:12.195Z,18.63
2016-10-01T17:21:11.860Z,18.59
2016-10-01T17:26:12.101Z,18.47
2016-10-01T17:31:12.046Z,18.35
2016-10-01T17:36:12.011Z,18.35
2016-10-01T17:41:12.249Z,18.2
2016-10-01T17:46:12.210Z,18.2
2016-10-01T17:51:12.154Z,18.08
2016-10-01T17:56:11.797Z,18.08
2016-10-01T18:01:11.751Z,18.02
2016-10-01T18:06:11.700Z,17.94
2016-10-01T18:11:11.962Z,17.92
2016-10-01T18:16:11.606Z,17.94
2016-10-01T18:21:11.538Z,17.96
2016-10-01T18:26:11.482Z,18.01
2016-10-01T18:31:11.742Z,17.99
2016-10-01T18:36:11.692Z,18.01
2016-10-01T18:41:11.640Z,17.88
2016-10-01T18:46:10.964Z,17.92
2016-10-01T18:51:11.224Z,17.99
2016-10-01T18:56:11.483Z,17.92
2016-10-01T19:01:11.425Z,17.98
2016-10-01T19:06:10.769Z,17.92
2016-10-01T19:11:11.017Z,17.92
2016-10-01T19:16:11.256Z,17.99
2016-10-01T19:21:11.202Z,17.99
2016-10-01T19:26:10.535Z,17.96
2016-10-01T19:31:10.793Z,17.95
2016-10-01T19:36:10.735Z,17.96
2016-10-01T19:41:10.674Z,17.99
2016-10-01T19:46:10.621Z,17.96
2016-10-01T19:51:10.867Z,17.99
2016-10-01T19:56:10.809Z,17.9
2016-10-01T20:01:10.765Z,17.84
2016-10-01T20:06:10.712Z,17.84
2016-10-01T20:11:10.023Z,17.8
2016-10-01T20:16:10.601Z,17.77
2016-10-01T20:21:10.528Z,17.68
2016-10-01T20:26:10.466Z,17.54
2016-10-01T20:31:10.407Z,17.55
2016-10-01T20:36:10.343Z,17.47
2016-10-01T20:41:09.982Z,17.42
2016-10-01T20:46:10.228Z,17.35
2016-10-01T20:51:10.168Z,17.28
2016-10-01T20:56:09.829Z,17.27
2016-10-01T21:01:09.449Z,17.2
2016-10-01T21:06:09.685Z,17.21
2016-10-01T21:11:09.933Z,17.2
2016-10-01T21:16:09.572Z,17.24
2016-10-01T21:21:09.515Z,17.27
2016-10-01T21:26:09.475Z,17.15
2016-10-01T21:31:09.392Z,17.17
2016-10-01T21:36:09.334Z,17.13
2016-10-01T21:41:09.275Z,16.99
